createdAt,value
2022-12-12T00:01:02.818Z,89.59
2022-12-12T00:03:31.418Z,91.09
2022-12-12T00:05:58.481Z,90.58
2022-12-12T00:08:25.534Z,89.93
2022-12-12T00:10:52.460Z,90.08
2022-12-12T00:13:19.359Z,89.70
2022-12-12T00:15:46.273Z,89.83
2022-12-12T00:18:13.221Z,89.17
2022-12-12T00:20:40.123Z,90.67
2022-12-12T00:23:07.056Z,90.72
2022-12-12T00:25:33.964Z,90.00
2022-12-12T00:28:01.036Z,89.21
2022-12-12T00:30:29.194Z,90.39
2022-12-12T00:32:56.072Z,89.45
2022-12-12T00:35:22.983Z,90.44
2022-12-12T00:37:49.839Z,91.04
2022-12-12T00:40:16.804Z,90.94
2022-12-12T00:42:43.715Z,89.33
2022-12-12T00:45:11.302Z,89.09
2022-12-12T00:47:38.427Z,90.18
2022-12-12T00:50:05.804Z,90.44
2022-12-12T00:52:32.723Z,89.38
2022-12-12T00:54:59.580Z,90.59
2022-12-12T00:57:26.547Z,89.72
2022-12-12T00:59:53.399Z,90.83
2022-12-12T01:02:26.436Z,89.58
2022-12-12T01:04:54.910Z,90.98
2022-12-12T01:07:21.895Z,90.91
2022-12-12T01:09:48.753Z,90.56
2022-12-12T01:12:15.853Z,90.53
2022-12-12T01:14:42.838Z,89.42
2022-12-12T01:17:09.981Z,89.54
2022-12-12T01:19:36.909Z,90.82
2022-12-12T01:22:03.827Z,90.70
2022-12-12T01:24:31.185Z,89.61
2022-12-12T01:26:58.378Z,90.45
2022-12-12T01:29:25.328Z,89.68
2022-12-12T01:31:52.255Z,89.62
2022-12-12T01:34:19.189Z,90.25
2022-12-12T01:36:46.110Z,89.28
2022-12-12T01:39:13.055Z,90.29
2022-12-12T01:41:40.063Z,89.71
2022-12-12T01:44:43.825Z,89.61
2022-12-12T01:47:13.687Z,90.05
2022-12-12T01:49:43.573Z,89.45
2022-12-12T01:52:16.674Z,89.93
2022-12-12T01:54:49.459Z,90.16
2022-12-12T01:57:26.125Z,90.04
2022-12-12T01:59:53.621Z,89.29
2022-12-12T02:02:20.801Z,89.47
2022-12-12T02:04:48.214Z,89.85
2022-12-12T02:07:35.601Z,89.77
2022-12-12T02:10:25.777Z,89.95
2022-12-12T02:13:33.504Z,89.65
2022-12-12T02:16:23.669Z,89.58
2022-12-12T02:19:39.829Z,90.03
2022-12-12T02:22:22.065Z,89.92
2022-12-12T02:25:41.254Z,89.36
2022-12-12T02:28:28.068Z,90.25
2022-12-12T02:31:16.493Z,89.35
2022-12-12T02:33:56.185Z,89.46
2022-12-12T02:36:41.019Z,89.29
2022-12-12T02:39:23.415Z,89.07
2022-12-12T02:41:57.033Z,90.38
2022-12-12T02:44:30.514Z,90.14
2022-12-12T02:47:19.527Z,89.57
2022-12-12T02:49:57.309Z,89.46
2022-12-12T02:52:25.052Z,90.06
2022-12-12T02:54:51.968Z,90.12
2022-12-12T02:57:24.880Z,89.37
2022-12-12T03:00:18.680Z,89.77
2022-12-12T03:03:34.613Z,89.85
2022-12-12T03:07:06.946Z,88.80
2022-12-12T03:09:54.586Z,90.02
2022-12-12T03:12:32.139Z,89.08
2022-12-12T03:15:11.000Z,89.24
2022-12-12T03:18:19.786Z,89.16
2022-12-12T03:21:05.039Z,88.83
2022-12-12T03:23:48.344Z,89.72
2022-12-12T03:26:17.414Z,90.06
2022-12-12T03:28:52.664Z,88.58
2022-12-12T03:31:24.755Z,89.29
2022-12-12T03:34:02.727Z,90.27
2022-12-12T03:37:03.279Z,90.74
2022-12-12T03:39:41.052Z,89.34
2022-12-12T03:42:19.723Z,90.33
2022-12-12T03:44:52.949Z,91.16
2022-12-12T03:47:29.539Z,89.49
2022-12-12T03:50:19.499Z,90.10
2022-12-12T03:53:00.248Z,89.14
2022-12-12T03:55:33.692Z,89.51
2022-12-12T03:58:09.405Z,90.17
2022-12-12T04:00:40.618Z,89.52
2022-12-12T04:03:26.367Z,89.81
2022-12-12T04:06:18.501Z,90.40
2022-12-12T04:09:06.471Z,90.28
2022-12-12T04:12:00.904Z,89.88
2022-12-12T04:14:51.067Z,90.43
2022-12-12T04:17:25.052Z,89.80
2022-12-12T04:20:19.595Z,90.43
2022-12-12T04:23:18.424Z,91.46
2022-12-12T04:26:25.313Z,90.28
2022-12-12T04:29:00.231Z,91.10
2022-12-12T04:31:31.318Z,90.86
2022-12-12T04:34:06.262Z,90.68
2022-12-12T04:36:35.621Z,91.45
2022-12-12T04:39:05.945Z,90.80
2022-12-12T04:41:35.311Z,91.94
2022-12-12T04:44:06.498Z,90.81
2022-12-12T04:46:34.601Z,90.39
2022-12-12T04:49:07.975Z,91.00
2022-12-12T04:51:44.274Z,90.70
2022-12-12T04:54:23.222Z,91.49
2022-12-12T04:56:55.557Z,90.89
2022-12-12T04:59:23.976Z,90.89
2022-12-12T05:02:14.475Z,90.83
2022-12-12T05:04:51.823Z,90.77
2022-12-12T05:07:29.421Z,90.99
2022-12-12T05:09:58.660Z,90.54
2022-12-12T05:12:26.859Z,91.39
2022-12-12T05:14:53.827Z,91.59
2022-12-12T05:17:28.038Z,90.91
2022-12-12T05:19:55.955Z,91.76
2022-12-12T05:22:22.850Z,90.26
2022-12-12T05:24:49.813Z,90.71
2022-12-12T05:27:16.814Z,91.01
2022-12-12T05:29:43.688Z,90.73
2022-12-12T05:32:10.666Z,90.12
2022-12-12T05:34:37.633Z,90.43
2022-12-12T05:37:04.527Z,91.08
2022-12-12T05:39:31.614Z,89.76
2022-12-12T05:41:58.556Z,90.31
2022-12-12T05:44:25.451Z,89.46
2022-12-12T05:46:52.418Z,90.37
2022-12-12T05:49:19.313Z,90.23
2022-12-12T05:51:46.290Z,90.98
2022-12-12T05:54:13.961Z,90.44
2022-12-12T05:56:40.909Z,90.98
2022-12-12T05:59:07.943Z,91.16
2022-12-12T06:01:35.137Z,90.39
2022-12-12T06:04:02.107Z,89.99
2022-12-12T06:06:29.294Z,91.15
2022-12-12T06:08:56.242Z,91.49
2022-12-12T06:11:23.820Z,90.29
2022-12-12T06:13:50.924Z,91.84
2022-12-12T06:16:19.465Z,91.07
2022-12-12T06:18:54.010Z,91.58
2022-12-12T06:21:22.260Z,90.86
2022-12-12T06:23:49.833Z,91.11
2022-12-12T06:26:18.271Z,92.00
2022-12-12T06:28:45.572Z,91.59
2022-12-12T06:31:12.655Z,90.59
2022-12-12T06:33:43.671Z,91.79
2022-12-12T06:36:24.195Z,91.59
2022-12-12T06:38:56.229Z,90.53
2022-12-12T06:41:25.169Z,91.42
2022-12-12T06:43:52.446Z,90.72
2022-12-12T06:46:34.999Z,90.12
2022-12-12T06:49:01.980Z,90.14
2022-12-12T06:51:36.665Z,91.21
2022-12-12T06:54:03.662Z,91.26
2022-12-12T06:56:31.130Z,92.15
2022-12-12T06:58:59.813Z,90.90
2022-12-12T07:01:26.816Z,90.78
2022-12-12T07:03:54.081Z,90.25
2022-12-12T07:06:23.434Z,91.65
2022-12-12T07:08:51.987Z,92.10
2022-12-12T07:11:23.334Z,90.78
2022-12-12T07:13:50.976Z,91.44
2022-12-12T07:16:21.057Z,89.96
2022-12-12T07:18:48.640Z,91.21
2022-12-12T07:21:18.272Z,89.84
2022-12-12T07:23:45.537Z,90.00
2022-12-12T07:26:19.253Z,89.44
2022-12-12T07:28:46.609Z,90.28
2022-12-12T07:31:17.601Z,89.46
2022-12-12T07:33:45.390Z,88.79
2022-12-12T07:36:14.720Z,89.80
2022-12-12T07:38:42.018Z,88.96
2022-12-12T07:41:12.680Z,89.38
2022-12-12T07:43:44.263Z,88.49
2022-12-12T07:46:15.262Z,89.99
2022-12-12T07:48:42.731Z,89.23
2022-12-12T07:51:09.771Z,88.42
2022-12-12T07:53:36.714Z,89.23
2022-12-12T07:56:08.519Z,89.49
2022-12-12T07:58:36.190Z,89.51
2022-12-12T08:01:14.699Z,87.60
2022-12-12T08:03:43.340Z,87.71
2022-12-12T08:06:10.559Z,86.82
2022-12-12T08:08:37.883Z,87.53
2022-12-12T08:11:06.648Z,88.63
2022-12-12T08:13:35.629Z,87.27
2022-12-12T08:16:02.659Z,87.86
2022-12-12T08:18:29.800Z,87.62
2022-12-12T08:20:56.819Z,88.09
2022-12-12T08:23:23.762Z,86.42
2022-12-12T08:25:50.734Z,86.84
2022-12-12T08:28:17.702Z,85.88
2022-12-12T08:30:49.505Z,86.83
2022-12-12T08:33:16.456Z,86.81
2022-12-12T08:35:43.362Z,85.68
2022-12-12T08:38:10.281Z,85.41
2022-12-12T08:40:37.204Z,86.59
2022-12-12T08:43:04.133Z,86.09
2022-12-12T08:45:31.069Z,86.93
2022-12-12T08:47:58.984Z,84.92
2022-12-12T08:50:26.527Z,84.36
2022-12-12T08:52:53.443Z,85.46
2022-12-12T08:55:20.724Z,84.73
2022-12-12T08:57:47.809Z,84.72
2022-12-12T09:00:15.406Z,84.13
2022-12-12T09:02:42.635Z,83.79
2022-12-12T09:05:10.842Z,84.26
2022-12-12T09:07:38.139Z,84.19
2022-12-12T09:10:05.563Z,84.20
2022-12-12T09:12:35.674Z,84.95
2022-12-12T09:15:07.585Z,83.22
2022-12-12T09:17:34.588Z,83.94
2022-12-12T09:20:01.518Z,84.90
2022-12-12T09:22:28.455Z,83.67
2022-12-12T09:24:55.462Z,85.53
2022-12-12T09:27:22.354Z,84.22
2022-12-12T09:29:49.309Z,85.17
2022-12-12T09:32:19.953Z,85.13
2022-12-12T09:34:51.491Z,83.83
2022-12-12T09:37:18.496Z,84.76
2022-12-12T09:39:45.516Z,87.89
2022-12-12T09:42:21.695Z,86.82
2022-12-12T09:44:50.193Z,86.55
2022-12-12T09:47:22.453Z,84.92
2022-12-12T09:49:56.336Z,84.83
2022-12-12T09:52:31.755Z,86.41
2022-12-12T09:55:08.613Z,85.79
2022-12-12T09:58:00.141Z,85.68
2022-12-12T10:00:29.298Z,86.03
2022-12-12T10:03:17.593Z,87.08
2022-12-12T10:09:07.840Z,86.54
2022-12-12T10:11:53.203Z,87.62
2022-12-12T10:14:45.747Z,87.36
2022-12-12T10:17:21.064Z,87.42
2022-12-12T10:19:54.671Z,85.58
2022-12-12T10:23:02.002Z,85.93
2022-12-12T10:25:32.800Z,85.20
2022-12-12T10:28:10.104Z,87.20
2022-12-12T10:31:02.335Z,87.52
2022-12-12T10:33:48.418Z,87.78
2022-12-12T10:36:30.244Z,85.73
2022-12-12T10:39:34.650Z,86.42
2022-12-12T10:42:15.575Z,86.75
2022-12-12T10:45:13.603Z,87.37
2022-12-12T10:47:40.815Z,86.51
2022-12-12T10:50:13.297Z,86.22
2022-12-12T10:52:40.995Z,86.23
2022-12-12T10:55:57.569Z,86.42
2022-12-12T10:58:36.852Z,85.79
2022-12-12T11:01:11.534Z,85.76
2022-12-12T11:03:57.799Z,85.56
2022-12-12T11:06:36.349Z,87.28
2022-12-12T11:09:18.364Z,86.07
2022-12-12T11:12:03.571Z,87.06
2022-12-12T11:14:40.320Z,86.58
2022-12-12T11:17:20.522Z,85.18
2022-12-12T11:19:47.637Z,85.66
2022-12-12T11:22:15.024Z,85.80
2022-12-12T11:24:48.381Z,85.83
2022-12-12T11:27:23.197Z,86.59
2022-12-12T11:29:58.594Z,85.86
2022-12-12T11:32:47.787Z,85.88
2022-12-12T11:35:29.759Z,86.47
2022-12-12T11:38:01.992Z,86.43
2022-12-12T11:40:33.373Z,86.49
2022-12-12T11:43:27.784Z,84.51
2022-12-12T11:46:19.085Z,85.90
2022-12-12T11:48:51.989Z,85.73
2022-12-12T11:51:44.642Z,85.06
2022-12-12T11:54:15.447Z,86.68
2022-12-12T11:56:47.505Z,88.06
2022-12-12T11:59:23.693Z,86.71
2022-12-12T12:02:03.997Z,87.39
2022-12-12T12:04:39.824Z,89.38
2022-12-12T12:07:18.950Z,86.83
2022-12-12T12:10:02.237Z,86.46
2022-12-12T12:12:49.843Z,87.36
2022-12-12T12:15:46.051Z,87.32
2022-12-12T12:18:36.200Z,86.98
2022-12-12T12:21:18.351Z,87.09
2022-12-12T12:24:00.387Z,88.72
2022-12-12T12:27:04.353Z,89.71
2022-12-12T12:29:43.381Z,90.17
2022-12-12T12:32:29.885Z,89.56
2022-12-12T12:34:56.832Z,88.93
2022-12-12T12:37:44.305Z,90.44
2022-12-12T12:40:14.295Z,89.89
2022-12-12T12:42:57.447Z,90.21
2022-12-12T12:45:42.791Z,90.94
2022-12-12T12:48:22.888Z,89.37
2022-12-12T12:51:09.138Z,90.41
2022-12-12T12:53:43.856Z,88.85
2022-12-12T12:56:30.196Z,89.66
2022-12-12T12:59:04.670Z,89.54
2022-12-12T13:01:39.276Z,89.28
2022-12-12T13:04:13.504Z,88.76
2022-12-12T13:06:43.535Z,88.31
2022-12-12T13:09:13.033Z,88.95
2022-12-12T13:11:44.836Z,88.18
2022-12-12T13:14:37.686Z,89.51
2022-12-12T13:17:08.124Z,89.53
2022-12-12T13:19:43.215Z,89.24
2022-12-12T13:22:23.809Z,88.90
2022-12-12T13:25:01.516Z,90.37
2022-12-12T13:27:34.991Z,89.08
2022-12-12T13:30:22.925Z,89.48
2022-12-12T13:33:08.219Z,90.45
2022-12-12T13:35:51.382Z,90.06
2022-12-12T13:38:30.957Z,89.99
2022-12-12T13:41:03.377Z,92.32
2022-12-12T13:43:33.335Z,92.29
2022-12-12T13:46:29.415Z,91.20
2022-12-12T13:49:03.013Z,92.10
2022-12-12T13:51:34.895Z,91.87
2022-12-12T13:54:12.583Z,93.18
2022-12-12T13:56:43.717Z,92.46
2022-12-12T13:59:22.600Z,92.28
2022-12-12T14:02:01.346Z,93.16
2022-12-12T14:04:31.479Z,92.11
2022-12-12T14:07:17.053Z,92.62
2022-12-12T14:09:49.360Z,92.76
2022-12-12T14:12:32.094Z,93.76
2022-12-12T14:15:21.065Z,92.67
2022-12-12T14:17:59.549Z,92.38
2022-12-12T14:20:39.775Z,92.76
2022-12-12T14:23:20.848Z,92.33
2022-12-12T14:25:47.780Z,92.88
2022-12-12T14:28:19.206Z,93.43
2022-12-12T14:30:52.674Z,92.71
2022-12-12T14:33:50.336Z,92.78
2022-12-12T14:36:19.945Z,93.58
2022-12-12T14:39:02.011Z,93.60
2022-12-12T14:41:38.189Z,92.17
2022-12-12T14:44:36.741Z,92.58
2022-12-12T14:47:08.077Z,93.50
2022-12-12T14:49:35.070Z,92.50
2022-12-12T14:52:02.366Z,93.93
2022-12-12T14:54:31.129Z,92.60
2022-12-12T14:56:59.621Z,93.84
2022-12-12T14:59:31.552Z,93.25
2022-12-12T15:02:26.514Z,92.41
2022-12-12T15:05:04.950Z,93.56
2022-12-12T15:07:38.656Z,93.47
2022-12-12T15:10:27.728Z,93.55
2022-12-12T15:12:54.675Z,94.14
2022-12-12T15:15:31.398Z,92.81
2022-12-12T15:18:01.146Z,93.53
2022-12-12T15:20:32.624Z,94.59
2022-12-12T15:23:02.665Z,93.00
2022-12-12T15:25:33.191Z,93.21
2022-12-12T15:28:01.749Z,93.85
2022-12-12T15:30:39.734Z,94.59
2022-12-12T15:33:15.424Z,94.51
2022-12-12T15:35:50.319Z,94.42
2022-12-12T15:38:17.627Z,94.10
2022-12-12T15:40:50.584Z,93.50
2022-12-12T15:43:26.085Z,94.27
2022-12-12T15:46:02.843Z,95.12
2022-12-12T15:48:29.757Z,95.25
2022-12-12T15:51:03.646Z,94.48
2022-12-12T15:53:34.329Z,94.91
2022-12-12T15:56:14.523Z,95.10
2022-12-12T15:58:47.284Z,93.64
2022-12-12T16:01:20.360Z,94.00
2022-12-12T16:04:23.390Z,94.56
2022-12-12T16:06:50.727Z,93.65
2022-12-12T16:09:26.490Z,93.08
2022-12-12T16:11:54.258Z,93.59
2022-12-12T16:14:33.954Z,92.85
2022-12-12T16:17:20.656Z,93.58
2022-12-12T16:19:52.622Z,93.35
2022-12-12T16:22:38.253Z,93.32
2022-12-12T16:25:27.066Z,93.59
2022-12-12T16:28:06.290Z,92.83
2022-12-12T16:30:33.740Z,92.92
2022-12-12T16:33:26.085Z,92.72
2022-12-12T16:35:53.272Z,93.54
2022-12-12T16:38:20.366Z,92.40
2022-12-12T16:40:50.741Z,94.26
2022-12-12T16:43:21.551Z,93.66
2022-12-12T16:45:53.403Z,92.65
2022-12-12T16:48:26.142Z,93.48
2022-12-12T16:50:57.581Z,93.04
2022-12-12T16:53:24.556Z,92.49
2022-12-12T16:55:52.491Z,93.49
2022-12-12T16:58:21.471Z,92.47
2022-12-12T17:00:49.781Z,91.95
2022-12-12T17:03:17.637Z,92.67
2022-12-12T17:05:46.626Z,91.60
2022-12-12T17:08:16.329Z,92.03
2022-12-12T17:10:45.431Z,92.10
2022-12-12T17:13:21.308Z,91.02
2022-12-12T17:15:48.234Z,90.99
2022-12-12T17:18:15.153Z,90.18
2022-12-12T17:20:43.324Z,90.06
2022-12-12T17:23:29.184Z,89.57
2022-12-12T17:26:02.936Z,89.12
2022-12-12T17:28:31.131Z,89.89
2022-12-12T17:30:58.174Z,89.80
2022-12-12T17:33:27.676Z,89.55
2022-12-12T17:36:04.083Z,88.88
2022-12-12T17:38:31.137Z,89.28
2022-12-12T17:41:02.205Z,89.09
2022-12-12T17:43:29.151Z,89.17
2022-12-12T17:46:07.552Z,89.15
2022-12-12T17:48:36.391Z,89.66
2022-12-12T17:51:05.754Z,89.16
2022-12-12T17:53:38.486Z,89.62
2022-12-12T17:56:07.760Z,89.76
2022-12-12T17:58:43.682Z,90.61
2022-12-12T18:01:18.602Z,89.18
2022-12-12T18:03:46.228Z,89.75
2022-12-12T18:06:14.567Z,89.87
2022-12-12T18:08:41.947Z,88.70
2022-12-12T18:11:13.000Z,89.76
2022-12-12T18:13:41.257Z,89.52
2022-12-12T18:16:10.474Z,88.70
2022-12-12T18:18:38.081Z,88.94
2022-12-12T18:21:10.521Z,88.91
2022-12-12T18:23:39.754Z,89.49
2022-12-12T18:26:09.953Z,88.23
2022-12-12T18:28:37.430Z,88.52
2022-12-12T18:31:06.019Z,89.58
2022-12-12T18:33:33.683Z,88.53
2022-12-12T18:36:18.644Z,88.97
2022-12-12T18:38:47.907Z,89.57
2022-12-12T18:41:16.230Z,89.99
2022-12-12T18:43:43.678Z,89.48
2022-12-12T18:46:16.959Z,89.89
2022-12-12T18:48:47.105Z,89.54
2022-12-12T18:51:25.377Z,88.96
2022-12-12T18:54:02.956Z,89.12
2022-12-12T18:56:31.630Z,89.58
2022-12-12T18:59:02.816Z,88.75
2022-12-12T19:01:34.692Z,87.88
2022-12-12T19:04:10.491Z,88.86
2022-12-12T19:06:38.699Z,88.14
2022-12-12T19:09:14.976Z,88.66
2022-12-12T19:11:42.896Z,87.78
2022-12-12T19:14:12.682Z,88.07
2022-12-12T19:16:40.901Z,88.35
2022-12-12T19:19:11.353Z,87.85
2022-12-12T19:21:38.952Z,88.71
2022-12-12T19:24:09.466Z,88.18
2022-12-12T19:26:37.525Z,88.70
2022-12-12T19:29:07.878Z,88.91
2022-12-12T19:31:41.550Z,87.70
2022-12-12T19:34:12.936Z,88.67
2022-12-12T19:36:43.790Z,88.36
2022-12-12T19:39:17.679Z,88.62
2022-12-12T19:41:45.095Z,88.37
2022-12-12T19:44:13.689Z,88.98
2022-12-12T19:46:44.718Z,87.82
2022-12-12T19:49:13.905Z,87.41
2022-12-12T19:51:42.907Z,89.00
2022-12-12T19:54:14.667Z,87.63
2022-12-12T19:56:42.454Z,87.50
2022-12-12T19:59:12.688Z,88.00
2022-12-12T20:01:40.709Z,87.85
2022-12-12T20:04:23.259Z,86.79
2022-12-12T20:06:57.826Z,88.06
2022-12-12T20:09:29.534Z,88.24
2022-12-12T20:12:03.041Z,87.55
2022-12-12T20:14:36.202Z,88.68
2022-12-12T20:17:05.815Z,88.89
2022-12-12T20:19:39.225Z,88.61
2022-12-12T20:22:07.626Z,89.45
2022-12-12T20:24:35.874Z,89.38
2022-12-12T20:27:09.328Z,88.99
2022-12-12T20:29:38.484Z,88.94
2022-12-12T20:32:06.991Z,88.68
2022-12-12T20:34:33.958Z,88.75
2022-12-12T20:37:00.968Z,88.94
2022-12-12T20:39:39.715Z,89.24
2022-12-12T20:42:07.226Z,88.12
2022-12-12T20:44:34.447Z,88.82
2022-12-12T20:47:03.131Z,87.53
2022-12-12T20:49:30.520Z,87.42
2022-12-12T20:51:58.759Z,87.56
2022-12-12T20:54:28.457Z,87.82
2022-12-12T20:56:56.132Z,86.75
2022-12-12T20:59:24.060Z,87.21
2022-12-12T21:01:51.708Z,87.21
2022-12-12T21:04:18.774Z,87.95
2022-12-12T21:06:50.170Z,86.69
2022-12-12T21:09:23.703Z,88.32
2022-12-12T21:11:53.878Z,88.65
2022-12-12T21:14:20.973Z,86.27
2022-12-12T21:16:47.998Z,87.76
2022-12-12T21:19:15.872Z,86.63
2022-12-12T21:21:43.806Z,86.99
2022-12-12T21:24:15.654Z,86.90
2022-12-12T21:26:43.145Z,87.02
2022-12-12T21:29:10.193Z,88.02
2022-12-12T21:31:43.413Z,87.86
2022-12-12T21:34:13.797Z,87.47
2022-12-12T21:36:40.738Z,87.11
2022-12-12T21:39:07.971Z,87.92
2022-12-12T21:41:35.565Z,88.70
2022-12-12T21:44:02.665Z,87.83
2022-12-12T21:46:31.395Z,87.59
2022-12-12T21:49:17.310Z,87.09
2022-12-12T21:51:44.532Z,86.35
2022-12-12T21:54:13.950Z,87.34
2022-12-12T21:56:41.566Z,86.33
2022-12-12T21:59:10.039Z,86.58
2022-12-12T22:01:37.735Z,87.20
2022-12-12T22:04:05.151Z,86.49
2022-12-12T22:06:35.025Z,86.98
2022-12-12T22:09:05.911Z,87.02
2022-12-12T22:11:40.984Z,86.07
2022-12-12T22:14:17.853Z,86.30
2022-12-12T22:16:45.171Z,87.02
2022-12-12T22:19:14.191Z,87.22
2022-12-12T22:21:41.681Z,86.90
2022-12-12T22:24:09.009Z,87.55
2022-12-12T22:26:40.157Z,87.96
2022-12-12T22:29:11.099Z,88.82
2022-12-12T22:31:39.676Z,87.96
2022-12-12T22:34:10.797Z,87.49
2022-12-12T22:36:39.199Z,86.65
2022-12-12T22:39:08.418Z,86.80
2022-12-12T22:41:35.456Z,88.86
2022-12-12T22:44:06.517Z,87.34
2022-12-12T22:46:36.984Z,87.29
2022-12-12T22:49:06.257Z,88.68
2022-12-12T22:51:34.325Z,88.11
2022-12-12T22:54:04.203Z,86.70
2022-12-12T22:56:33.396Z,87.45
2022-12-12T22:59:00.553Z,87.75
2022-12-12T23:01:28.828Z,88.30
2022-12-12T23:03:56.392Z,87.44
2022-12-12T23:06:30.458Z,86.68
2022-12-12T23:08:59.767Z,86.49
2022-12-12T23:11:29.089Z,86.75
2022-12-12T23:14:00.856Z,88.31
2022-12-12T23:16:30.984Z,88.45
2022-12-12T23:18:59.020Z,87.12
2022-12-12T23:21:27.037Z,86.97
2022-12-12T23:23:54.977Z,87.31
2022-12-12T23:26:24.901Z,87.21
2022-12-12T23:28:51.968Z,87.34
2022-12-12T23:31:28.157Z,85.85
2022-12-12T23:33:57.122Z,86.61
2022-12-12T23:36:24.959Z,86.25
2022-12-12T23:38:55.961Z,86.28
2022-12-12T23:41:23.251Z,87.12
2022-12-12T23:43:51.294Z,87.14
2022-12-12T23:46:32.464Z,87.64
2022-12-12T23:49:08.336Z,87.22
2022-12-12T23:51:40.929Z,87.55
2022-12-12T23:54:11.597Z,87.63
2022-12-12T23:56:40.143Z,86.07
2022-12-12T23:59:07.197Z,87.29
